createdAt,value
2018-04-02T00:00:40.018Z,1002.3
2018-04-02T00:01:42.389Z,1002.3
2018-04-02T00:02:45.052Z,1002.3
2018-04-02T00:03:47.428Z,1002.4
2018-04-02T00:04:49.797Z,1002.3
2018-04-02T00:05:52.177Z,1002.3
2018-04-02T00:06:54.541Z,1002.3
2018-04-02T00:07:56.932Z,1002.3
2018-04-02T00:08:59.302Z,1002.3
2018-04-02T00:10:01.674Z,1002.3
2018-04-02T00:11:04.061Z,1002.4
2018-04-02T00:12:06.423Z,1002.3
2018-04-02T00:13:09.099Z,1002.4
2018-04-02T00:14:11.752Z,1002.4
2018-04-02T00:15:14.114Z,1002.4
2018-04-02T00:16:16.508Z,1002.3
2018-04-02T00:17:19.165Z,1002.4
2018-04-02T00:18:21.520Z,1002.4
2018-04-02T00:19:23.894Z,1002.4
2018-04-02T00:20:26.537Z,1002.4
2018-04-02T00:21:28.906Z,1002.3
2018-04-02T00:22:31.562Z,1002.4
2018-04-02T00:23:34.204Z,1002.4
2018-04-02T00:24:36.869Z,1002.4
2018-04-02T00:25:39.550Z,1002.5
2018-04-02T00:26:41.925Z,1002.4
2018-04-02T00:27:44.296Z,1002.4
2018-04-02T00:28:48.580Z,1002.5
2018-04-02T00:29:51.251Z,1002.5
2018-04-02T00:30:53.629Z,1002.4
2018-04-02T00:31:56.287Z,1002.5
2018-04-02T00:32:58.684Z,1002.5
2018-04-02T00:34:01.053Z,1002.5
2018-04-02T00:35:03.709Z,1002.5
2018-04-02T00:36:06.073Z,1002.5
2018-04-02T00:37:08.432Z,1002.5
2018-04-02T00:38:10.808Z,1002.5
2018-04-02T00:39:13.188Z,1002.5
2018-04-02T00:40:15.571Z,1002.5
2018-04-02T00:41:18.230Z,1002.6
2018-04-02T00:42:20.895Z,1002.6
2018-04-02T00:43:23.255Z,1002.5
2018-04-02T00:44:25.622Z,1002.6
2018-04-02T00:45:27.983Z,1002.6
2018-04-02T00:46:30.351Z,1002.5
2018-04-02T00:47:33.003Z,1002.5
2018-04-02T00:48:35.375Z,1002.5
2018-04-02T00:49:38.029Z,1002.5
2018-04-02T00:50:40.404Z,1002.5
2018-04-02T00:51:42.775Z,1002.6
2018-04-02T00:52:45.152Z,1002.6
2018-04-02T00:53:47.517Z,1002.6
2018-04-02T00:54:49.884Z,1002.6
2018-04-02T00:55:52.240Z,1002.6
2018-04-02T00:56:54.629Z,1002.6
2018-04-02T00:57:56.997Z,1002.6
2018-04-02T00:58:59.365Z,1002.6
2018-04-02T01:00:02.019Z,1002.6
2018-04-02T01:01:04.688Z,1002.6
2018-04-02T01:02:07.052Z,1002.6
2018-04-02T01:03:09.415Z,1002.6
2018-04-02T01:04:11.768Z,1002.6
2018-04-02T01:05:14.134Z,1002.6
2018-04-02T01:06:16.503Z,1002.7
2018-04-02T01:07:18.868Z,1002.7
2018-04-02T01:08:21.531Z,1002.7
2018-04-02T01:09:23.895Z,1002.8
2018-04-02T01:10:26.551Z,1002.7
2018-04-02T01:11:28.926Z,1002.7
2018-04-02T01:12:31.579Z,1002.7
2018-04-02T01:13:33.945Z,1002.7
2018-04-02T01:14:36.609Z,1002.7
2018-04-02T01:15:38.963Z,1002.7
2018-04-02T01:16:41.337Z,1002.7
2018-04-02T01:17:43.993Z,1002.7
2018-04-02T01:18:46.358Z,1002.7
2018-04-02T01:19:49.013Z,1002.7
2018-04-02T01:20:51.380Z,1002.7
2018-04-02T01:21:53.741Z,1002.7
2018-04-02T01:22:56.397Z,1002.7
2018-04-02T01:23:58.768Z,1002.7
2018-04-02T01:25:01.425Z,1002.7
2018-04-02T01:26:04.082Z,1002.8
2018-04-02T01:27:06.745Z,1002.7
2018-04-02T01:28:09.402Z,1002.8
2018-04-02T01:29:11.779Z,1002.8
2018-04-02T01:30:14.133Z,1002.7
2018-04-02T01:31:16.495Z,1002.8
2018-04-02T01:32:19.364Z,1002.8
2018-04-02T01:33:21.728Z,1002.8
2018-04-02T01:34:24.117Z,1002.8
2018-04-02T01:35:26.484Z,1002.8
2018-04-02T01:36:29.140Z,1002.8
2018-04-02T01:37:31.809Z,1002.7
2018-04-02T01:38:34.168Z,1002.7
2018-04-02T01:39:36.842Z,1002.7
2018-04-02T01:40:39.204Z,1002.8
2018-04-02T01:41:41.579Z,1002.7
2018-04-02T01:42:44.512Z,1002.7
2018-04-02T01:43:47.160Z,1002.8
2018-04-02T01:44:49.812Z,1002.7
2018-04-02T01:45:52.183Z,1002.7
2018-04-02T01:46:54.560Z,1002.7
2018-04-02T01:47:57.501Z,1002.7
2018-04-02T01:49:00.153Z,1002.8
2018-04-02T01:50:02.832Z,1002.7
2018-04-02T01:51:05.500Z,1002.7
2018-04-02T01:52:07.885Z,1002.7
2018-04-02T01:53:10.255Z,1002.8
2018-04-02T01:54:12.643Z,1002.7
2018-04-02T01:55:15.312Z,1002.6
2018-04-02T01:56:17.696Z,1002.7
2018-04-02T01:57:20.064Z,1002.7
2018-04-02T01:58:22.443Z,1002.6
2018-04-02T01:59:25.095Z,1002.6
2018-04-02T02:00:27.459Z,1002.6
2018-04-02T02:01:29.821Z,1002.6
2018-04-02T02:02:32.195Z,1002.7
2018-04-02T02:03:34.566Z,1002.6
2018-04-02T02:04:36.952Z,1002.6
2018-04-02T02:05:39.309Z,1002.6
2018-04-02T02:06:41.673Z,1002.6
2018-04-02T02:07:44.032Z,1002.6
2018-04-02T02:08:46.683Z,1002.6
2018-04-02T02:09:49.050Z,1002.6
2018-04-02T02:10:51.413Z,1002.6
2018-04-02T02:11:53.783Z,1002.6
2018-04-02T02:12:56.137Z,1002.6
2018-04-02T02:13:58.525Z,1002.6
2018-04-02T02:15:00.902Z,1002.6
2018-04-02T02:16:03.271Z,1002.6
2018-04-02T02:17:05.660Z,1002.7
2018-04-02T02:18:08.026Z,1002.7
2018-04-02T02:19:10.391Z,1002.6
2018-04-02T02:20:12.774Z,1002.7
2018-04-02T02:21:15.445Z,1002.7
2018-04-02T02:22:17.833Z,1002.7
2018-04-02T02:23:20.475Z,1002.6
2018-04-02T02:24:22.839Z,1002.6
2018-04-02T02:25:25.209Z,1002.6
2018-04-02T02:26:27.862Z,1002.6
2018-04-02T02:27:30.218Z,1002.6
2018-04-02T02:28:32.593Z,1002.6
2018-04-02T02:29:34.948Z,1002.6
2018-04-02T02:30:37.324Z,1002.6
2018-04-02T02:31:39.697Z,1002.5
2018-04-02T02:32:42.358Z,1002.5
2018-04-02T02:33:44.716Z,1002.5
2018-04-02T02:34:47.093Z,1002.5
2018-04-02T02:35:49.468Z,1002.6
2018-04-02T02:36:51.826Z,1002.5
2018-04-02T02:37:54.201Z,1002.5
2018-04-02T02:38:56.581Z,1002.5
2018-04-02T02:39:58.947Z,1002.6
2018-04-02T02:41:01.609Z,1002.6
2018-04-02T02:42:03.984Z,1002.6
2018-04-02T02:43:06.355Z,1002.6
2018-04-02T02:44:08.717Z,1002.5
2018-04-02T02:45:11.379Z,1002.6
2018-04-02T02:46:13.741Z,1002.6
2018-04-02T02:47:16.099Z,1002.6
2018-04-02T02:48:18.757Z,1002.5
2018-04-02T02:49:21.125Z,1002.6
2018-04-02T02:50:23.492Z,1002.6
2018-04-02T02:51:26.137Z,1002.6
2018-04-02T02:52:28.506Z,1002.6
2018-04-02T02:53:30.894Z,1002.6
2018-04-02T02:54:33.544Z,1002.6
2018-04-02T02:55:36.213Z,1002.6
2018-04-02T02:56:38.581Z,1002.6
2018-04-02T02:57:40.949Z,1002.6
2018-04-02T02:58:43.328Z,1002.6
2018-04-02T02:59:45.701Z,1002.6
2018-04-02T03:00:48.063Z,1002.5
2018-04-02T03:01:50.428Z,1002.6
2018-04-02T03:02:53.096Z,1002.6
2018-04-02T03:03:55.736Z,1002.6
2018-04-02T03:04:58.723Z,1002.6
2018-04-02T03:06:01.394Z,1002.6
2018-04-02T03:07:04.033Z,1002.6
2018-04-02T03:08:06.406Z,1002.6
2018-04-02T03:09:08.766Z,1002.7
2018-04-02T03:10:11.159Z,1002.7
2018-04-02T03:11:13.807Z,1002.6
2018-04-02T03:12:16.461Z,1002.6
2018-04-02T03:13:18.836Z,1002.6
2018-04-02T03:14:21.200Z,1002.6
2018-04-02T03:15:23.572Z,1002.6
2018-04-02T03:16:25.945Z,1002.7
2018-04-02T03:17:28.297Z,1002.7
2018-04-02T03:18:30.663Z,1002.7
2018-04-02T03:19:33.036Z,1002.7
2018-04-02T03:20:35.388Z,1002.7
2018-04-02T03:21:37.757Z,1002.6
2018-04-02T03:22:40.130Z,1002.6
2018-04-02T03:23:42.492Z,1002.6
2018-04-02T03:24:44.865Z,1002.6
2018-04-02T03:25:47.238Z,1002.6
2018-04-02T03:26:49.600Z,1002.6
2018-04-02T03:27:51.988Z,1002.6
2018-04-02T03:28:54.483Z,1002.6
2018-04-02T03:29:56.861Z,1002.6
2018-04-02T03:30:59.510Z,1002.6
2018-04-02T03:32:01.899Z,1002.6
2018-04-02T03:33:04.547Z,1002.6
2018-04-02T03:34:06.917Z,1002.6
2018-04-02T03:35:09.582Z,1002.6
2018-04-02T03:36:11.947Z,1002.6
2018-04-02T03:37:14.342Z,1002.7
2018-04-02T03:38:16.987Z,1002.7
2018-04-02T03:39:19.356Z,1002.7
2018-04-02T03:40:21.723Z,1002.7
2018-04-02T03:41:24.097Z,1002.7
2018-04-02T03:42:26.744Z,1002.7
2018-04-02T03:43:29.115Z,1002.7
2018-04-02T03:44:31.482Z,1002.7
2018-04-02T03:45:33.844Z,1002.7
2018-04-02T03:46:36.779Z,1002.7
2018-04-02T03:47:39.149Z,1002.7
2018-04-02T03:48:41.520Z,1002.7
2018-04-02T03:49:43.895Z,1002.7
2018-04-02T03:50:46.834Z,1002.8
2018-04-02T03:51:49.212Z,1002.8
2018-04-02T03:52:51.587Z,1002.8
2018-04-02T03:53:53.962Z,1002.7
2018-04-02T03:54:56.606Z,1002.7
2018-04-02T03:55:58.978Z,1002.7
2018-04-02T03:57:01.352Z,1002.8
2018-04-02T03:58:03.710Z,1002.8
2018-04-02T03:59:06.358Z,1002.8
2018-04-02T04:00:09.004Z,1002.8
2018-04-02T04:01:11.648Z,1002.8
2018-04-02T04:02:14.034Z,1002.8
2018-04-02T04:03:16.397Z,1002.8
2018-04-02T04:04:18.760Z,1002.9
2018-04-02T04:05:21.421Z,1002.8
2018-04-02T04:06:23.796Z,1002.8
2018-04-02T04:07:26.160Z,1002.9
2018-04-02T04:08:28.528Z,1002.8
2018-04-02T04:09:30.912Z,1002.8
2018-04-02T04:10:33.274Z,1002.8
2018-04-02T04:11:35.641Z,1002.9
2018-04-02T04:12:38.012Z,1002.8
2018-04-02T04:13:40.376Z,1002.8
2018-04-02T04:14:43.053Z,1002.8
2018-04-02T04:15:45.407Z,1002.8
2018-04-02T04:16:48.044Z,1002.8
2018-04-02T04:17:50.694Z,1002.8
2018-04-02T04:18:53.061Z,1002.8
2018-04-02T04:19:55.430Z,1002.9
2018-04-02T04:20:57.825Z,1002.8
2018-04-02T04:22:00.514Z,1002.9
2018-04-02T04:23:03.180Z,1002.8
2018-04-02T04:24:05.558Z,1002.9
2018-04-02T04:25:07.915Z,1002.9
2018-04-02T04:26:10.288Z,1002.9
2018-04-02T04:27:12.660Z,1002.8
2018-04-02T04:28:15.026Z,1002.8
2018-04-02T04:29:17.401Z,1002.8
2018-04-02T04:30:19.765Z,1002.8
2018-04-02T04:31:22.416Z,1002.8
2018-04-02T04:32:24.786Z,1002.8
2018-04-02T04:33:27.156Z,1002.8
2018-04-02T04:34:29.530Z,1002.8
2018-04-02T04:35:32.182Z,1002.8
2018-04-02T04:36:34.888Z,1002.8
2018-04-02T04:37:37.249Z,1002.8
2018-04-02T04:38:39.617Z,1002.8
2018-04-02T04:39:41.969Z,1002.8
2018-04-02T04:40:44.636Z,1002.9
2018-04-02T04:41:46.991Z,1002.9
2018-04-02T04:42:49.648Z,1002.9
2018-04-02T04:43:52.024Z,1002.9
2018-04-02T04:44:54.672Z,1002.9
2018-04-02T04:45:57.044Z,1003
2018-04-02T04:46:59.412Z,1003
2018-04-02T04:48:01.773Z,1003
2018-04-02T04:49:04.436Z,1003
2018-04-02T04:50:07.078Z,1003
2018-04-02T04:51:09.450Z,1003
2018-04-02T04:52:12.111Z,1003
2018-04-02T04:53:14.765Z,1003
2018-04-02T04:54:17.120Z,1003.1
2018-04-02T04:55:19.496Z,1003
2018-04-02T04:56:22.405Z,1003
2018-04-02T04:57:24.774Z,1003
2018-04-02T04:58:27.155Z,1003
2018-04-02T04:59:29.560Z,1003
2018-04-02T05:00:31.899Z,1003.1
2018-04-02T05:01:34.276Z,1003
2018-04-02T05:02:36.646Z,1003
2018-04-02T05:03:39.027Z,1003
2018-04-02T05:04:41.393Z,1003
2018-04-02T05:05:43.763Z,1003
2018-04-02T05:06:46.142Z,1003
2018-04-02T05:07:48.503Z,1003
2018-04-02T05:08:50.864Z,1003.1
2018-04-02T05:09:53.230Z,1003.1
2018-04-02T05:10:55.599Z,1003.1
2018-04-02T05:11:57.968Z,1003.1
2018-04-02T05:13:00.352Z,1003
2018-04-02T05:14:02.712Z,1003.1
2018-04-02T05:15:05.640Z,1003.1
2018-04-02T05:16:08.298Z,1003.1
2018-04-02T05:17:10.663Z,1003.1
2018-04-02T05:18:13.327Z,1003.1
2018-04-02T05:19:15.687Z,1003.2
2018-04-02T05:20:18.064Z,1003.1
2018-04-02T05:21:20.438Z,1003.1
2018-04-02T05:22:23.378Z,1003.1
2018-04-02T05:23:25.746Z,1003.2
2018-04-02T05:24:28.380Z,1003.1
2018-04-02T05:25:30.769Z,1003.1
2018-04-02T05:26:33.127Z,1003.2
2018-04-02T05:27:36.060Z,1003.2
2018-04-02T05:28:38.421Z,1003.2
2018-04-02T05:29:40.792Z,1003.2
2018-04-02T05:30:43.163Z,1003.2
2018-04-02T05:31:45.531Z,1003.2
2018-04-02T05:32:47.889Z,1003.2
2018-04-02T05:33:50.255Z,1003.2
2018-04-02T05:34:52.907Z,1003.2
2018-04-02T05:35:55.846Z,1003.2
2018-04-02T05:36:58.203Z,1003.2
2018-04-02T05:38:00.581Z,1003.2
2018-04-02T05:39:02.946Z,1003.2
2018-04-02T05:40:05.582Z,1003.2
2018-04-02T05:41:08.240Z,1003.2
2018-04-02T05:42:10.613Z,1003.2
2018-04-02T05:43:13.554Z,1003.3
2018-04-02T05:44:15.914Z,1003.2
2018-04-02T05:45:18.302Z,1003.2
2018-04-02T05:46:20.989Z,1003.3
2018-04-02T05:47:23.371Z,1003.3
2018-04-02T05:48:25.720Z,1003.3
2018-04-02T05:49:28.104Z,1003.3
2018-04-02T05:50:30.470Z,1003.3
2018-04-02T05:51:32.840Z,1003.3
2018-04-02T05:52:35.207Z,1003.3
2018-04-02T05:53:37.576Z,1003.3
2018-04-02T05:54:39.940Z,1003.3
2018-04-02T05:55:42.316Z,1003.3
2018-04-02T05:56:44.678Z,1003.3
2018-04-02T05:57:47.053Z,1003.3
2018-04-02T05:58:50.015Z,1003.3
2018-04-02T05:59:52.371Z,1003.3
2018-04-02T06:00:55.313Z,1003.3
2018-04-02T06:01:57.688Z,1003.3
2018-04-02T06:03:00.056Z,1003.3
2018-04-02T06:04:02.413Z,1003.3
2018-04-02T06:05:04.776Z,1003.3
2018-04-02T06:06:07.152Z,1003.3
2018-04-02T06:07:09.516Z,1003.3
2018-04-02T06:08:12.173Z,1003.3
2018-04-02T06:09:14.537Z,1003.3
2018-04-02T06:10:17.207Z,1003.3
2018-04-02T06:11:19.580Z,1003.3
2018-04-02T06:12:22.260Z,1003.3
2018-04-02T06:13:24.614Z,1003.4
2018-04-02T06:14:27.011Z,1003.3
2018-04-02T06:15:29.358Z,1003.3
2018-04-02T06:16:31.729Z,1003.4
2018-04-02T06:17:34.102Z,1003.3
2018-04-02T06:18:36.472Z,1003.4
2018-04-02T06:19:38.838Z,1003.4
2018-04-02T06:20:41.206Z,1003.3
2018-04-02T06:21:43.573Z,1003.3
2018-04-02T06:22:45.938Z,1003.3
2018-04-02T06:23:48.298Z,1003.3
2018-04-02T06:24:50.677Z,1003.3
2018-04-02T06:25:53.042Z,1003.3
2018-04-02T06:26:55.704Z,1003.3
2018-04-02T06:27:58.058Z,1003.3
2018-04-02T06:29:00.477Z,1003.3
2018-04-02T06:30:03.141Z,1003.3
2018-04-02T06:31:05.514Z,1003.3
2018-04-02T06:32:07.867Z,1003.3
2018-04-02T06:33:10.243Z,1003.3
2018-04-02T06:34:12.612Z,1003.3
2018-04-02T06:35:15.268Z,1003.3
2018-04-02T06:36:17.640Z,1003.4
2018-04-02T06:37:20.023Z,1003.3
2018-04-02T06:38:22.385Z,1003.3
2018-04-02T06:39:24.758Z,1003.3
2018-04-02T06:40:27.121Z,1003.4
2018-04-02T06:41:29.493Z,1003.4
2018-04-02T06:42:31.866Z,1003.4
2018-04-02T06:43:34.235Z,1003.4
2018-04-02T06:44:36.600Z,1003.5
2018-04-02T06:45:38.977Z,1003.5
2018-04-02T06:46:41.352Z,1003.4
2018-04-02T06:47:43.710Z,1003.5
2018-04-02T06:48:46.095Z,1003.5
2018-04-02T06:49:48.463Z,1003.5
2018-04-02T06:50:50.828Z,1003.5
2018-04-02T06:51:53.200Z,1003.5
2018-04-02T06:52:55.926Z,1003.4
2018-04-02T06:53:58.240Z,1003.4
2018-04-02T06:55:00.905Z,1003.4
2018-04-02T06:56:03.567Z,1003.4
2018-04-02T06:57:06.187Z,1003.4
2018-04-02T06:58:09.788Z,1003.4
2018-04-02T06:59:12.407Z,1003.5
2018-04-02T07:00:14.780Z,1003.5
2018-04-02T07:01:17.143Z,1003.4
2018-04-02T07:02:19.528Z,1003.4
2018-04-02T07:03:21.904Z,1003.4
2018-04-02T07:04:24.268Z,1003.4
2018-04-02T07:05:26.925Z,1003.4
2018-04-02T07:06:29.292Z,1003.4
2018-04-02T07:07:31.939Z,1003.4
2018-04-02T07:08:34.312Z,1003.4
2018-04-02T07:09:36.679Z,1003.4
2018-04-02T07:10:39.074Z,1003.4
2018-04-02T07:11:41.436Z,1003.5
2018-04-02T07:12:43.798Z,1003.4
2018-04-02T07:13:46.178Z,1003.4
2018-04-02T07:14:49.085Z,1003.4
2018-04-02T07:15:51.970Z,1003.4
2018-04-02T07:16:54.480Z,1003.4
2018-04-02T07:17:56.932Z,1003.5
2018-04-02T07:18:59.309Z,1003.5
2018-04-02T07:20:01.815Z,1003.4
2018-04-02T07:21:04.543Z,1003.4
2018-04-02T07:22:06.930Z,1003.5
2018-04-02T07:23:09.332Z,1003.5
2018-04-02T07:24:11.879Z,1003.4
2018-04-02T07:25:14.263Z,1003.4
2018-04-02T07:26:16.628Z,1003.5
2018-04-02T07:27:19.003Z,1003.4
2018-04-02T07:28:21.687Z,1003.4
2018-04-02T07:29:24.065Z,1003.4
2018-04-02T07:30:26.753Z,1003.5
2018-04-02T07:31:29.689Z,1003.5
2018-04-02T07:32:32.068Z,1003.4
2018-04-02T07:33:34.451Z,1003.4
2018-04-02T07:34:36.809Z,1003.5
2018-04-02T07:35:39.189Z,1003.5
2018-04-02T07:36:41.568Z,1003.4
2018-04-02T07:37:43.940Z,1003.4
2018-04-02T07:38:46.325Z,1003.4
2018-04-02T07:39:48.966Z,1003.4
2018-04-02T07:40:51.351Z,1003.4
2018-04-02T07:41:53.734Z,1003.4
2018-04-02T07:42:56.409Z,1003.4
2018-04-02T07:43:59.047Z,1003.4
2018-04-02T07:45:01.418Z,1003.4
2018-04-02T07:46:03.800Z,1003.4
2018-04-02T07:47:06.162Z,1003.4
2018-04-02T07:48:08.546Z,1003.4
2018-04-02T07:49:11.205Z,1003.3
2018-04-02T07:50:13.581Z,1003.3
2018-04-02T07:51:16.237Z,1003.3
2018-04-02T07:52:18.915Z,1003.3
2018-04-02T07:53:21.283Z,1003.3
2018-04-02T07:54:23.664Z,1003.3
2018-04-02T07:55:26.320Z,1003.4
2018-04-02T07:56:28.696Z,1003.3
2018-04-02T07:57:31.362Z,1003.3
2018-04-02T07:58:33.929Z,1003.3
2018-04-02T07:59:37.663Z,1003.3
2018-04-02T08:00:40.042Z,1003.3
2018-04-02T08:01:42.418Z,1003.3
2018-04-02T08:02:44.839Z,1003.3
2018-04-02T08:03:47.578Z,1003.3
2018-04-02T08:04:49.952Z,1003.3
2018-04-02T08:05:52.606Z,1003.3
2018-04-02T08:06:54.978Z,1003.3
2018-04-02T08:07:57.363Z,1003.3
2018-04-02T08:08:59.730Z,1003.3
2018-04-02T08:10:02.403Z,1003.3
2018-04-02T08:11:05.062Z,1003.3
2018-04-02T08:12:07.769Z,1003.3
2018-04-02T08:13:10.115Z,1003.3
2018-04-02T08:14:12.538Z,1003.3
2018-04-02T08:15:14.927Z,1003.4
2018-04-02T08:16:17.802Z,1003.3
2018-04-02T08:17:20.203Z,1003.3
2018-04-02T08:18:23.353Z,1003.3
2018-04-02T08:19:26.629Z,1003.3
2018-04-02T08:20:30.246Z,1003.3
2018-04-02T08:21:32.900Z,1003.3
2018-04-02T08:22:35.381Z,1003.4
2018-04-02T08:23:38.534Z,1003.3
2018-04-02T08:24:40.902Z,1003.3
2018-04-02T08:25:43.804Z,1003.3
2018-04-02T08:26:46.188Z,1003.4
2018-04-02T08:27:48.660Z,1003.3
2018-04-02T08:28:51.045Z,1003.3
2018-04-02T08:29:53.421Z,1003.3
2018-04-02T08:30:55.796Z,1003.3
2018-04-02T08:31:58.213Z,1003.3
2018-04-02T08:33:00.625Z,1003.3
2018-04-02T08:34:03.565Z,1003.3
2018-04-02T08:35:05.935Z,1003.3
2018-04-02T08:36:08.663Z,1003.3
2018-04-02T08:37:46.206Z,1003.3
2018-04-02T08:38:49.047Z,1003.3
2018-04-02T08:39:51.352Z,1003.3
2018-04-02T08:40:53.782Z,1003.3
2018-04-02T08:41:56.261Z,1003.4
2018-04-02T08:42:58.988Z,1003.4
2018-04-02T08:44:01.410Z,1003.4
2018-04-02T08:45:03.854Z,1003.4
2018-04-02T08:46:06.293Z,1003.3
2018-04-02T08:47:08.728Z,1003.3
2018-04-02T08:48:11.169Z,1003.4
2018-04-02T08:49:13.598Z,1003.4
2018-04-02T08:50:16.337Z,1003.4
2018-04-02T08:51:18.780Z,1003.4
2018-04-02T08:52:21.207Z,1003.4
2018-04-02T08:53:23.948Z,1003.4
2018-04-02T08:54:26.492Z,1003.5
2018-04-02T08:55:28.914Z,1003.4
2018-04-02T08:56:31.359Z,1003.4
2018-04-02T08:57:33.832Z,1003.4
2018-04-02T08:58:36.270Z,1003.3
2018-04-02T08:59:38.711Z,1003.4
2018-04-02T09:00:41.158Z,1003.3
2018-04-02T09:01:43.601Z,1003.4
2018-04-02T09:02:46.067Z,1003.3
2018-04-02T09:03:48.512Z,1003.4
2018-04-02T09:04:50.994Z,1003.4
2018-04-02T09:05:53.721Z,1003.4
2018-04-02T09:06:56.161Z,1003.3
2018-04-02T09:07:58.908Z,1003.4
2018-04-02T09:09:01.668Z,1003.4
2018-04-02T09:10:04.095Z,1003.3
2018-04-02T09:11:06.579Z,1003.4
2018-04-02T09:12:09.037Z,1003.4
2018-04-02T09:13:11.504Z,1003.3
2018-04-02T09:14:13.936Z,1003.4
2018-04-02T09:15:16.433Z,1003.4
2018-04-02T09:16:20.498Z,1003.3
2018-04-02T09:17:23.402Z,1003.4
2018-04-02T09:18:25.846Z,1003.3
2018-04-02T09:19:28.284Z,1003.3
2018-04-02T09:20:30.725Z,1003.3
2018-04-02T09:21:33.169Z,1003.3
2018-04-02T09:22:35.615Z,1003.4
2018-04-02T09:23:38.060Z,1003.3
2018-04-02T09:24:40.492Z,1003.4
2018-04-02T09:25:42.938Z,1003.3
2018-04-02T09:26:45.368Z,1003.4
2018-04-02T09:27:47.822Z,1003.3
2018-04-02T09:28:50.255Z,1003.3
2018-04-02T09:29:52.697Z,1003.3
2018-04-02T09:30:55.143Z,1003.4
2018-04-02T09:31:57.585Z,1003.3
2018-04-02T09:33:00.027Z,1003.4
2018-04-02T09:34:02.757Z,1003.4
2018-04-02T09:35:05.200Z,1003.3
2018-04-02T09:36:07.638Z,1003.3
2018-04-02T09:37:10.078Z,1003.2
2018-04-02T09:38:12.523Z,1003.3
2018-04-02T09:39:15.553Z,1003.3
2018-04-02T09:40:18.007Z,1003.3
2018-04-02T09:41:20.731Z,1003.3
2018-04-02T09:42:23.173Z,1003.3
2018-04-02T09:43:25.634Z,1003.3
2018-04-02T09:44:28.071Z,1003.3
2018-04-02T09:45:30.515Z,1003.3
2018-04-02T09:46:32.952Z,1003.2
2018-04-02T09:47:35.396Z,1003.3
2018-04-02T09:48:37.844Z,1003.3
2018-04-02T09:49:40.564Z,1003.3
2018-04-02T09:50:43.296Z,1003.3
2018-04-02T09:51:45.730Z,1003.3
2018-04-02T09:52:48.481Z,1003.2
2018-04-02T09:53:51.198Z,1003.3
2018-04-02T09:54:53.648Z,1003.2
2018-04-02T09:55:56.375Z,1003.2
2018-04-02T09:56:59.126Z,1003.2
2018-04-02T09:58:01.858Z,1003.1
2018-04-02T09:59:04.304Z,1003.2
2018-04-02T10:00:06.727Z,1003.2
2018-04-02T10:01:09.168Z,1003.2
2018-04-02T10:02:11.610Z,1003.2
2018-04-02T10:03:14.350Z,1003.1
2018-04-02T10:04:16.783Z,1003.1
2018-04-02T10:05:19.254Z,1003.1
2018-04-02T10:06:21.734Z,1003.1
2018-04-02T10:07:24.132Z,1003.1
2018-04-02T10:08:26.578Z,1003.2
2018-04-02T10:09:29.020Z,1003.1
2018-04-02T10:10:31.819Z,1003.1
2018-04-02T10:11:34.602Z,1003.1
2018-04-02T10:12:37.036Z,1003.1
2018-04-02T10:13:39.772Z,1003.1
2018-04-02T10:14:42.539Z,1003
2018-04-02T10:15:44.980Z,1003
2018-04-02T10:16:47.724Z,1003
2018-04-02T10:17:50.166Z,1003
2018-04-02T10:18:52.596Z,1003
2018-04-02T10:19:55.049Z,1003
2018-04-02T10:20:57.482Z,1003
2018-04-02T10:22:00.218Z,1003
2018-04-02T10:23:02.949Z,1003
2018-04-02T10:24:05.516Z,1002.9
2018-04-02T10:25:07.822Z,1002.8
2018-04-02T10:26:10.593Z,1002.8
2018-04-02T10:27:13.354Z,1002.8
2018-04-02T10:28:15.798Z,1002.8
2018-04-02T10:29:18.296Z,1002.8
2018-04-02T10:30:20.674Z,1002.8
2018-04-02T10:31:23.119Z,1002.8
2018-04-02T10:32:26.126Z,1002.8
2018-04-02T10:33:28.865Z,1002.8
2018-04-02T10:34:31.306Z,1002.8
2018-04-02T10:35:33.745Z,1002.9
2018-04-02T10:36:36.180Z,1002.9
2018-04-02T10:37:38.621Z,1002.8
2018-04-02T10:38:41.069Z,1002.8
2018-04-02T10:39:44.341Z,1002.8
2018-04-02T10:40:46.767Z,1002.8
2018-04-02T10:41:49.213Z,1002.8
2018-04-02T10:42:51.657Z,1002.8
2018-04-02T10:43:54.113Z,1002.8
2018-04-02T10:44:57.138Z,1002.8
2018-04-02T10:45:59.581Z,1002.8
2018-04-02T10:47:02.028Z,1002.8
2018-04-02T10:48:05.070Z,1002.8
2018-04-02T10:49:07.513Z,1002.8
2018-04-02T10:50:09.949Z,1002.8
2018-04-02T10:51:12.399Z,1002.7
2018-04-02T10:52:15.152Z,1002.8
2018-04-02T10:53:17.590Z,1002.8
2018-04-02T10:54:20.049Z,1002.8
2018-04-02T10:55:22.488Z,1002.8
2018-04-02T10:56:24.933Z,1002.7
2018-04-02T10:57:27.654Z,1002.7
2018-04-02T10:58:30.105Z,1002.7
2018-04-02T10:59:33.102Z,1002.7
2018-04-02T11:00:35.548Z,1002.7
2018-04-02T11:01:37.994Z,1002.8
2018-04-02T11:02:40.432Z,1002.7
2018-04-02T11:03:42.879Z,1002.7
2018-04-02T11:04:45.332Z,1002.6
2018-04-02T11:05:47.838Z,1002.6
2018-04-02T11:06:50.449Z,1002.6
2018-04-02T11:07:52.677Z,1002.7
2018-04-02T11:08:55.111Z,1002.6
2018-04-02T11:09:57.560Z,1002.7
2018-04-02T11:10:59.991Z,1002.6
2018-04-02T11:12:02.436Z,1002.6
2018-04-02T11:13:04.878Z,1002.6
2018-04-02T11:14:07.339Z,1002.6
2018-04-02T11:15:09.768Z,1002.6
2018-04-02T11:16:12.208Z,1002.6
2018-04-02T11:17:14.934Z,1002.6
2018-04-02T11:18:17.385Z,1002.5
2018-04-02T11:19:19.850Z,1002.5
2018-04-02T11:20:22.290Z,1002.6
2018-04-02T11:21:24.738Z,1002.5
2018-04-02T11:22:27.192Z,1002.6
2018-04-02T11:23:29.945Z,1002.5
2018-04-02T11:24:32.386Z,1002.5
2018-04-02T11:25:34.830Z,1002.5
2018-04-02T11:26:37.285Z,1002.6
2018-04-02T11:27:39.722Z,1002.6
2018-04-02T11:28:42.177Z,1002.5
2018-04-02T11:29:44.642Z,1002.6
2018-04-02T11:30:47.371Z,1002.5
2018-04-02T11:31:49.816Z,1002.5
2018-04-02T11:32:52.273Z,1002.5
2018-04-02T11:33:54.717Z,1002.5
2018-04-02T11:34:57.451Z,1002.5
2018-04-02T11:36:00.203Z,1002.5
2018-04-02T11:37:02.640Z,1002.5
2018-04-02T11:38:05.091Z,1002.5
2018-04-02T11:39:07.856Z,1002.5
2018-04-02T11:40:10.299Z,1002.4
2018-04-02T11:41:12.755Z,1002.5
2018-04-02T11:42:15.206Z,1002.4
2018-04-02T11:43:17.952Z,1002.4
2018-04-02T11:44:20.414Z,1002.5
2018-04-02T11:45:23.149Z,1002.4
2018-04-02T11:46:25.598Z,1002.4
2018-04-02T11:47:28.063Z,1002.4
2018-04-02T11:48:30.530Z,1002.4
2018-04-02T11:49:33.293Z,1002.4
2018-04-02T11:50:35.750Z,1002.4
2018-04-02T11:51:38.195Z,1002.3
2018-04-02T11:52:28.969Z,1002.3
